Date,TemperatureHighF,TemperatureAvgF,TemperatureLowF,DewpointHighF,DewpointAvgF,DewpointLowF,HumidityHigh,HumidityAvg,HumidityLow,PressureMaxIn,PressureMinIn,WindSpeedMaxMPH,WindSpeedAvgMPH,GustSpeedMaxMPH,PrecipitationSumIn
2013-1-1,44.7,40.3,35.7,32.4,30.1,26.8,73,67,61,30.02,29.90,6,2,14,0.00
2013-1-2,37.8,32.1,24.3,28.1,20.8,16.7,82,63,47,30.24,30.00,7,2,16,0.00
2013-1-3,37.9,28.9,22.2,21.6,19.4,16.4,83,68,49,30.26,30.14,4,1,11,0.00
2013-1-4,42.8,33.9,24.2,26.4,22.8,19.2,86,65,50,30.21,30.08,10,3,22,0.00
2013-1-5,44.2,35.4,28.4,31.4,25.4,21.0,85,67,51,30.38,30.13,5,2,13,0.00
2013-1-6,52.4,41.3,27.7,35.6,31.6,25.4,94,70,46,30.20,30.01,7,1,13,0.01
2013-1-7,47.8,38.0,25.0,31.7,28.3,22.0,88,69,51,30.43,30.13,8,2,18,0.00
2013-1-8,53.3,36.9,23.9,37.2,30.1,21.1,93,78,52,30.43,30.36,6,1,13,0.00
2013-1-9,50.5,39.6,27.9,42.5,34.7,25.9,94,83,64,30.38,30.22,6,1,12,0.00
2013-1-10,52.8,42.9,31.3,35.2,31.6,26.5,84,65,47,30.59,30.36,6,1,13,0.00
2013-1-11,45.0,39.2,32.4,41.4,35.8,29.3,94,87,78,30.51,30.10,2,0,7,0.14
2013-1-12,56.2,45.3,39.9,49.1,42.5,38.3,94,90,76,30.17,30.10,3,0,8,0.00
2013-1-13,50.4,44.8,38.6,48.7,43.2,37.0,94,94,94,30.15,29.98,5,1,10,0.02
2013-1-14,54.1,48.7,40.6,52.4,44.8,37.4,94,87,64,30.29,29.95,4,1,12,0.18
2013-1-15,40.6,38.5,35.5,38.4,36.7,33.7,94,93,91,30.34,30.16,4,1,15,0.68
2013-1-16,40.0,37.4,34.4,38.4,35.8,32.9,94,94,94,30.16,29.83,9,1,18,0.42
2013-1-17,44.4,40.1,37.3,38.9,35.2,31.5,94,83,68,30.12,29.97,4,1,10,0.00
2013-1-18,37.4,32.4,24.0,32.2,21.1,13.4,85,64,40,30.50,30.03,8,3,21,0.00
2013-1-19,53.6,40.8,30.0,34.8,28.1,19.4,76,61,43,30.43,29.96,9,4,18,0.00
2013-1-20,59.0,45.9,33.5,36.5,27.4,17.7,68,50,30,30.09,29.80,10,4,29,0.00
2013-1-21,40.4,33.9,28.8,30.2,21.5,13.8,74,60,50,30.12,29.80,8,3,21,0.00
2013-1-22,29.7,21.1,16.3,14.4,3.1,-0.9,55,45,36,30.30,29.91,12,5,26,0.00
2013-1-23,24.8,19.6,12.6,8.3,3.6,1.4,63,50,38,30.36,30.17,10,2,23,0.00
2013-1-24,27.3,19.6,10.3,14.4,9.2,3.6,86,65,40,30.51,30.12,9,3,23,0.06
2013-1-25,23.4,17.2,9.7,16.8,9.4,3.3,89,72,46,30.51,30.08,7,1,11,0.00
2013-1-26,33.7,24.5,16.0,21.4,17.8,13.0,88,76,57,30.43,30.09,5,1,14,0.07
2013-1-27,37.6,24.8,15.1,22.8,18.3,12.2,92,78,51,30.60,30.43,5,1,8,0.00
2013-1-28,38.7,33.6,26.0,36.3,30.7,22.8,94,89,76,30.52,30.05,6,2,12,0.15
2013-1-29,62.8,44.8,30.4,52.4,40.7,28.9,94,86,67,30.14,29.99,8,2,18,0.01
2013-1-30,69.0,56.8,46.5,62.3,53.6,44.3,94,89,79,29.99,29.23,15,5,29,0.58
2013-1-31,59.1,43.3,26.2,57.4,30.2,13.8,94,61,41,29.92,29.14,17,7,38,0.68